sensor_id;sensor_type;location;lat;lon;timestamp;P1;durP1;ratioP1;P2;durP2;ratioP2
18224;SDS011;9237;48.590;8.854;2022-08-23T00:02:13;0.60;;;0.60;;
18224;SDS011;9237;48.590;8.854;2022-08-23T00:04:41;0.70;;;0.70;;
18224;SDS011;9237;48.590;8.854;2022-08-23T00:07:09;0.60;;;0.60;;
18224;SDS011;9237;48.590;8.854;2022-08-23T00:09:37;0.70;;;0.70;;
18224;SDS011;9237;48.590;8.854;2022-08-23T00:12:07;0.60;;;0.60;;
18224;SDS011;9237;48.590;8.854;2022-08-23T00:14:38;0.60;;;0.60;;
18224;SDS011;9237;48.590;8.854;2022-08-23T00:17:08;0.60;;;0.60;;
18224;SDS011;9237;48.590;8.854;2022-08-23T00:19:36;0.60;;;0.60;;
18224;SDS011;9237;48.590;8.854;2022-08-23T00:22:04;0.67;;;0.67;;
18224;SDS011;9237;48.590;8.854;2022-08-23T00:24:32;0.60;;;0.60;;
18224;SDS011;9237;48.590;8.854;2022-08-23T00:27:00;0.60;;;0.60;;
18224;SDS011;9237;48.590;8.854;2022-08-23T00:29:33;0.60;;;0.60;;
18224;SDS011;9237;48.590;8.854;2022-08-23T00:32:03;0.63;;;0.63;;
18224;SDS011;9237;48.590;8.854;2022-08-23T00:34:31;0.60;;;0.60;;
18224;SDS011;9237;48.590;8.854;2022-08-23T00:36:58;0.60;;;0.60;;
18224;SDS011;9237;48.590;8.854;2022-08-23T00:39:25;0.70;;;0.70;;
18224;SDS011;9237;48.590;8.854;2022-08-23T00:41:55;0.70;;;0.70;;
18224;SDS011;9237;48.590;8.854;2022-08-23T00:44:24;0.70;;;0.70;;
18224;SDS011;9237;48.590;8.854;2022-08-23T00:47:14;0.70;;;0.70;;
18224;SDS011;9237;48.590;8.854;2022-08-23T00:50:03;0.67;;;0.67;;
18224;SDS011;9237;48.590;8.854;2022-08-23T00:52:45;0.70;;;0.70;;
18224;SDS011;9237;48.590;8.854;2022-08-23T00:55:18;0.60;;;0.60;;
18224;SDS011;9237;48.590;8.854;2022-08-23T00:57:46;0.70;;;0.70;;
18224;SDS011;9237;48.590;8.854;2022-08-23T01:00:13;0.60;;;0.60;;
18224;SDS011;9237;48.590;8.854;2022-08-23T01:02:42;0.70;;;0.70;;
18224;SDS011;9237;48.590;8.854;2022-08-23T01:05:11;0.70;;;0.70;;
18224;SDS011;9237;48.590;8.854;2022-08-23T01:07:43;0.70;;;0.70;;
18224;SDS011;9237;48.590;8.854;2022-08-23T01:10:14;0.70;;;0.70;;
18224;SDS011;9237;48.590;8.854;2022-08-23T01:12:46;0.70;;;0.70;;
18224;SDS011;9237;48.590;8.854;2022-08-23T01:15:18;0.70;;;0.70;;
18224;SDS011;9237;48.590;8.854;2022-08-23T01:17:51;0.70;;;0.70;;
18224;SDS011;9237;48.590;8.854;2022-08-23T01:20:23;0.70;;;0.70;;
18224;SDS011;9237;48.590;8.854;2022-08-23T01:22:52;0.70;;;0.70;;
18224;SDS011;9237;48.590;8.854;2022-08-23T01:25:23;0.70;;;0.70;;
18224;SDS011;9237;48.590;8.854;2022-08-23T01:27:52;0.70;;;0.70;;
18224;SDS011;9237;48.590;8.854;2022-08-23T01:30:21;0.70;;;0.70;;
18224;SDS011;9237;48.590;8.854;2022-08-23T01:32:50;0.70;;;0.70;;
18224;SDS011;9237;48.590;8.854;2022-08-23T01:35:20;0.70;;;0.70;;
18224;SDS011;9237;48.590;8.854;2022-08-23T01:37:55;0.70;;;0.70;;
18224;SDS011;9237;48.590;8.854;2022-08-23T01:40:23;0.60;;;0.60;;
18224;SDS011;9237;48.590;8.854;2022-08-23T01:42:50;0.70;;;0.70;;
18224;SDS011;9237;48.590;8.854;2022-08-23T01:45:17;0.70;;;0.70;;
18224;SDS011;9237;48.590;8.854;2022-08-23T01:47:44;0.70;;;0.70;;
18224;SDS011;9237;48.590;8.854;2022-08-23T01:50:11;0.70;;;0.70;;
18224;SDS011;9237;48.590;8.854;2022-08-23T01:52:39;0.70;;;0.70;;
18224;SDS011;9237;48.590;8.854;2022-08-23T01:55:07;0.70;;;0.70;;
18224;SDS011;9237;48.590;8.854;2022-08-23T01:57:35;0.70;;;0.70;;
18224;SDS011;9237;48.590;8.854;2022-08-23T02:00:04;0.80;;;0.80;;
18224;SDS011;9237;48.590;8.854;2022-08-23T02:02:32;0.70;;;0.70;;
18224;SDS011;9237;48.590;8.854;2022-08-23T02:04:59;0.80;;;0.80;;
18224;SDS011;9237;48.590;8.854;2022-08-23T02:07:26;0.70;;;0.70;;
18224;SDS011;9237;48.590;8.854;2022-08-23T02:09:53;0.77;;;0.77;;
18224;SDS011;9237;48.590;8.854;2022-08-23T02:12:20;0.80;;;0.80;;
18224;SDS011;9237;48.590;8.854;2022-08-23T02:14:49;0.70;;;0.70;;
18224;SDS011;9237;48.590;8.854;2022-08-23T02:17:16;0.70;;;0.70;;
18224;SDS011;9237;48.590;8.854;2022-08-23T02:19:43;0.80;;;0.80;;
18224;SDS011;9237;48.590;8.854;2022-08-23T02:22:11;0.70;;;0.70;;
18224;SDS011;9237;48.590;8.854;2022-08-23T02:24:39;0.70;;;0.70;;
18224;SDS011;9237;48.590;8.854;2022-08-23T02:27:07;0.80;;;0.80;;
18224;SDS011;9237;48.590;8.854;2022-08-23T02:29:35;0.80;;;0.80;;
18224;SDS011;9237;48.590;8.854;2022-08-23T02:32:04;0.80;;;0.80;;
18224;SDS011;9237;48.590;8.854;2022-08-23T02:34:31;0.70;;;0.70;;
18224;SDS011;9237;48.590;8.854;2022-08-23T02:36:58;0.80;;;0.80;;
18224;SDS011;9237;48.590;8.854;2022-08-23T02:39:26;0.70;;;0.70;;
18224;SDS011;9237;48.590;8.854;2022-08-23T02:41:53;0.70;;;0.70;;
18224;SDS011;9237;48.590;8.854;2022-08-23T02:44:20;0.80;;;0.80;;
18224;SDS011;9237;48.590;8.854;2022-08-23T02:46:47;0.80;;;0.80;;
18224;SDS011;9237;48.590;8.854;2022-08-23T02:49:16;0.73;;;0.73;;
18224;SDS011;9237;48.590;8.854;2022-08-23T02:51:43;0.80;;;0.80;;
18224;SDS011;9237;48.590;8.854;2022-08-23T02:54:10;0.70;;;0.70;;
18224;SDS011;9237;48.590;8.854;2022-08-23T02:56:37;0.70;;;0.70;;
18224;SDS011;9237;48.590;8.854;2022-08-23T02:59:04;0.70;;;0.70;;
18224;SDS011;9237;48.590;8.854;2022-08-23T03:01:32;0.70;;;0.70;;
18224;SDS011;9237;48.590;8.854;2022-08-23T03:04:01;0.70;;;0.70;;
18224;SDS011;9237;48.590;8.854;2022-08-23T03:06:33;0.70;;;0.70;;
18224;SDS011;9237;48.590;8.854;2022-08-23T03:09:02;0.70;;;0.70;;
18224;SDS011;9237;48.590;8.854;2022-08-23T03:11:30;0.70;;;0.70;;
18224;SDS011;9237;48.590;8.854;2022-08-23T03:13:57;0.70;;;0.70;;
18224;SDS011;9237;48.590;8.854;2022-08-23T03:16:25;0.80;;;0.80;;
18224;SDS011;9237;48.590;8.854;2022-08-23T03:18:52;0.70;;;0.70;;
18224;SDS011;9237;48.590;8.854;2022-08-23T03:21:19;0.70;;;0.70;;
18224;SDS011;9237;48.590;8.854;2022-08-23T03:23:48;0.80;;;0.80;;
18224;SDS011;9237;48.590;8.854;2022-08-23T03:26:15;0.70;;;0.70;;
18224;SDS011;9237;48.590;8.854;2022-08-23T03:28:42;0.73;;;0.73;;
18224;SDS011;9237;48.590;8.854;2022-08-23T03:31:10;0.70;;;0.70;;
18224;SDS011;9237;48.590;8.854;2022-08-23T03:33:38;0.70;;;0.70;;
18224;SDS011;9237;48.590;8.854;2022-08-23T03:36:06;0.60;;;0.60;;
18224;SDS011;9237;48.590;8.854;2022-08-23T03:38:35;0.70;;;0.70;;
18224;SDS011;9237;48.590;8.854;2022-08-23T03:41:05;0.80;;;0.80;;
18224;SDS011;9237;48.590;8.854;2022-08-23T03:43:32;0.70;;;0.70;;
18224;SDS011;9237;48.590;8.854;2022-08-23T03:46:00;0.80;;;0.80;;
18224;SDS011;9237;48.590;8.854;2022-08-23T03:48:27;0.80;;;0.80;;
18224;SDS011;9237;48.590;8.854;2022-08-23T03:50:54;0.77;;;0.77;;
18224;SDS011;9237;48.590;8.854;2022-08-23T03:53:20;0.73;;;0.73;;
18224;SDS011;9237;48.590;8.854;2022-08-23T03:55:48;0.80;;;0.80;;
18224;SDS011;9237;48.590;8.854;2022-08-23T03:58:17;0.80;;;0.80;;
18224;SDS011;9237;48.590;8.854;2022-08-23T04:00:45;0.70;;;0.70;;
18224;SDS011;9237;48.590;8.854;2022-08-23T04:03:13;0.73;;;0.73;;
18224;SDS011;9237;48.590;8.854;2022-08-23T04:05:39;0.70;;;0.70;;
18224;SDS011;9237;48.590;8.854;2022-08-23T04:08:08;0.70;;;0.70;;
18224;SDS011;9237;48.590;8.854;2022-08-23T04:10:35;0.70;;;0.70;;
18224;SDS011;9237;48.590;8.854;2022-08-23T04:13:03;0.70;;;0.70;;
18224;SDS011;9237;48.590;8.854;2022-08-23T04:15:32;0.70;;;0.70;;
18224;SDS011;9237;48.590;8.854;2022-08-23T04:17:58;0.70;;;0.70;;
18224;SDS011;9237;48.590;8.854;2022-08-23T04:20:25;0.80;;;0.80;;
18224;SDS011;9237;48.590;8.854;2022-08-23T04:22:53;0.80;;;0.80;;
18224;SDS011;9237;48.590;8.854;2022-08-23T04:25:20;0.70;;;0.70;;
18224;SDS011;9237;48.590;8.854;2022-08-23T04:27:48;0.70;;;0.70;;
18224;SDS011;9237;48.590;8.854;2022-08-23T04:30:15;0.70;;;0.70;;
18224;SDS011;9237;48.590;8.854;2022-08-23T04:32:45;0.70;;;0.70;;
18224;SDS011;9237;48.590;8.854;2022-08-23T04:35:12;0.70;;;0.70;;
18224;SDS011;9237;48.590;8.854;2022-08-23T04:37:39;0.70;;;0.70;;
18224;SDS011;9237;48.590;8.854;2022-08-23T04:40:07;0.70;;;0.70;;
18224;SDS011;9237;48.590;8.854;2022-08-23T04:42:54;0.70;;;0.70;;
18224;SDS011;9237;48.590;8.854;2022-08-23T04:45:21;0.80;;;0.80;;
18224;SDS011;9237;48.590;8.854;2022-08-23T04:47:49;0.80;;;0.80;;
18224;SDS011;9237;48.590;8.854;2022-08-23T04:50:16;0.80;;;0.80;;
18224;SDS011;9237;48.590;8.854;2022-08-23T04:52:43;0.80;;;0.80;;
18224;SDS011;9237;48.590;8.854;2022-08-23T04:55:10;0.80;;;0.80;;
18224;SDS011;9237;48.590;8.854;2022-08-23T04:57:37;0.77;;;0.77;;
18224;SDS011;9237;48.590;8.854;2022-08-23T05:00:07;0.80;;;0.80;;
18224;SDS011;9237;48.590;8.854;2022-08-23T05:02:36;0.80;;;0.80;;
18224;SDS011;9237;48.590;8.854;2022-08-23T05:05:05;0.80;;;0.80;;
18224;SDS011;9237;48.590;8.854;2022-08-23T05:07:32;0.80;;;0.80;;
18224;SDS011;9237;48.590;8.854;2022-08-23T05:09:59;0.83;;;0.83;;
18224;SDS011;9237;48.590;8.854;2022-08-23T05:12:27;0.80;;;0.80;;
18224;SDS011;9237;48.590;8.854;2022-08-23T05:14:54;0.70;;;0.70;;
18224;SDS011;9237;48.590;8.854;2022-08-23T05:17:21;0.70;;;0.70;;
18224;SDS011;9237;48.590;8.854;2022-08-23T05:19:48;0.77;;;0.77;;
18224;SDS011;9237;48.590;8.854;2022-08-23T05:22:16;0.73;;;0.73;;
18224;SDS011;9237;48.590;8.854;2022-08-23T05:24:43;0.80;;;0.80;;
18224;SDS011;9237;48.590;8.854;2022-08-23T05:27:10;0.70;;;0.70;;
18224;SDS011;9237;48.590;8.854;2022-08-23T05:29:37;0.77;;;0.77;;
18224;SDS011;9237;48.590;8.854;2022-08-23T05:32:04;0.73;;;0.73;;
18224;SDS011;9237;48.590;8.854;2022-08-23T05:34:31;0.70;;;0.70;;
18224;SDS011;9237;48.590;8.854;2022-08-23T05:36:58;0.70;;;0.70;;
18224;SDS011;9237;48.590;8.854;2022-08-23T05:39:27;0.70;;;0.70;;
18224;SDS011;9237;48.590;8.854;2022-08-23T05:41:54;0.70;;;0.70;;
18224;SDS011;9237;48.590;8.854;2022-08-23T05:44:21;0.70;;;0.70;;
18224;SDS011;9237;48.590;8.854;2022-08-23T05:46:47;0.70;;;0.70;;
18224;SDS011;9237;48.590;8.854;2022-08-23T05:49:14;0.70;;;0.70;;
18224;SDS011;9237;48.590;8.854;2022-08-23T05:51:41;0.60;;;0.60;;
18224;SDS011;9237;48.590;8.854;2022-08-23T05:54:08;0.70;;;0.70;;
18224;SDS011;9237;48.590;8.854;2022-08-23T05:56:37;0.60;;;0.60;;
18224;SDS011;9237;48.590;8.854;2022-08-23T05:59:07;0.70;;;0.70;;
18224;SDS011;9237;48.590;8.854;2022-08-23T06:01:36;0.70;;;0.70;;
18224;SDS011;9237;48.590;8.854;2022-08-23T06:04:04;0.70;;;0.70;;
18224;SDS011;9237;48.590;8.854;2022-08-23T06:06:32;0.60;;;0.60;;
18224;SDS011;9237;48.590;8.854;2022-08-23T06:09:00;0.60;;;0.60;;
18224;SDS011;9237;48.590;8.854;2022-08-23T06:11:28;0.60;;;0.60;;
18224;SDS011;9237;48.590;8.854;2022-08-23T06:13:58;0.60;;;0.60;;
18224;SDS011;9237;48.590;8.854;2022-08-23T06:16:26;0.60;;;0.60;;
18224;SDS011;9237;48.590;8.854;2022-08-23T06:18:55;0.60;;;0.60;;
18224;SDS011;9237;48.590;8.854;2022-08-23T06:21:23;0.60;;;0.60;;
18224;SDS011;9237;48.590;8.854;2022-08-23T06:23:51;0.60;;;0.60;;
18224;SDS011;9237;48.590;8.854;2022-08-23T06:26:18;0.60;;;0.60;;
18224;SDS011;9237;48.590;8.854;2022-08-23T06:28:47;0.60;;;0.60;;
18224;SDS011;9237;48.590;8.854;2022-08-23T06:31:18;0.50;;;0.50;;
18224;SDS011;9237;48.590;8.854;2022-08-23T06:34:15;0.60;;;0.60;;
18224;SDS011;9237;48.590;8.854;2022-08-23T06:36:44;0.50;;;0.50;;
18224;SDS011;9237;48.590;8.854;2022-08-23T06:39:13;0.50;;;0.50;;
18224;SDS011;9237;48.590;8.854;2022-08-23T06:41:41;0.60;;;0.60;;
18224;SDS011;9237;48.590;8.854;2022-08-23T06:44:08;0.50;;;0.50;;
18224;SDS011;9237;48.590;8.854;2022-08-23T06:46:35;0.50;;;0.50;;
18224;SDS011;9237;48.590;8.854;2022-08-23T06:49:03;0.50;;;0.50;;
18224;SDS011;9237;48.590;8.854;2022-08-23T06:51:33;0.50;;;0.50;;
18224;SDS011;9237;48.590;8.854;2022-08-23T06:54:02;0.40;;;0.40;;
18224;SDS011;9237;48.590;8.854;2022-08-23T06:56:31;0.40;;;0.40;;
18224;SDS011;9237;48.590;8.854;2022-08-23T06:58:58;0.50;;;0.50;;
18224;SDS011;9237;48.590;8.854;2022-08-23T07:01:30;0.40;;;0.40;;
18224;SDS011;9237;48.590;8.854;2022-08-23T07:03:58;0.40;;;0.40;;
18224;SDS011;9237;48.590;8.854;2022-08-23T07:06:26;0.40;;;0.40;;
18224;SDS011;9237;48.590;8.854;2022-08-23T07:08:55;0.50;;;0.50;;
18224;SDS011;9237;48.590;8.854;2022-08-23T07:11:23;0.50;;;0.50;;
18224;SDS011;9237;48.590;8.854;2022-08-23T07:13:51;0.40;;;0.40;;
18224;SDS011;9237;48.590;8.854;2022-08-23T07:16:18;0.40;;;0.40;;
18224;SDS011;9237;48.590;8.854;2022-08-23T07:18:45;0.40;;;0.40;;
18224;SDS011;9237;48.590;8.854;2022-08-23T07:21:13;0.40;;;0.40;;
18224;SDS011;9237;48.590;8.854;2022-08-23T07:23:41;0.45;;;0.45;;
18224;SDS011;9237;48.590;8.854;2022-08-23T07:26:11;0.40;;;0.40;;
18224;SDS011;9237;48.590;8.854;2022-08-23T07:28:39;0.30;;;0.30;;
18224;SDS011;9237;48.590;8.854;2022-08-23T07:31:07;0.40;;;0.40;;
18224;SDS011;9237;48.590;8.854;2022-08-23T07:33:37;0.40;;;0.40;;
18224;SDS011;9237;48.590;8.854;2022-08-23T07:36:04;0.40;;;0.40;;
18224;SDS011;9237;48.590;8.854;2022-08-23T07:38:32;0.40;;;0.40;;
18224;SDS011;9237;48.590;8.854;2022-08-23T07:41:00;0.40;;;0.40;;
18224;SDS011;9237;48.590;8.854;2022-08-23T07:43:29;0.40;;;0.40;;
18224;SDS011;9237;48.590;8.854;2022-08-23T07:45:57;0.40;;;0.40;;
18224;SDS011;9237;48.590;8.854;2022-08-23T07:48:25;0.40;;;0.40;;
18224;SDS011;9237;48.590;8.854;2022-08-23T07:50:52;0.35;;;0.35;;
18224;SDS011;9237;48.590;8.854;2022-08-23T07:53:21;0.30;;;0.30;;
18224;SDS011;9237;48.590;8.854;2022-08-23T07:55:49;0.30;;;0.30;;
18224;SDS011;9237;48.590;8.854;2022-08-23T07:58:16;0.35;;;0.35;;
18224;SDS011;9237;48.590;8.854;2022-08-23T08:00:44;0.32;;;0.32;;
18224;SDS011;9237;48.590;8.854;2022-08-23T08:03:12;0.30;;;0.30;;
18224;SDS011;9237;48.590;8.854;2022-08-23T08:05:40;0.30;;;0.30;;
18224;SDS011;9237;48.590;8.854;2022-08-23T08:08:07;0.30;;;0.30;;
18224;SDS011;9237;48.590;8.854;2022-08-23T08:10:34;0.30;;;0.30;;
18224;SDS011;9237;48.590;8.854;2022-08-23T08:13:02;0.30;;;0.30;;
18224;SDS011;9237;48.590;8.854;2022-08-23T08:15:30;0.30;;;0.30;;
18224;SDS011;9237;48.590;8.854;2022-08-23T08:17:59;0.30;;;0.30;;
18224;SDS011;9237;48.590;8.854;2022-08-23T08:20:26;0.30;;;0.30;;
18224;SDS011;9237;48.590;8.854;2022-08-23T08:22:55;0.30;;;0.30;;
18224;SDS011;9237;48.590;8.854;2022-08-23T08:25:22;0.30;;;0.30;;
18224;SDS011;9237;48.590;8.854;2022-08-23T08:27:49;0.30;;;0.30;;
18224;SDS011;9237;48.590;8.854;2022-08-23T08:30:16;0.30;;;0.30;;
18224;SDS011;9237;48.590;8.854;2022-08-23T08:32:43;0.30;;;0.30;;
18224;SDS011;9237;48.590;8.854;2022-08-23T08:35:11;0.30;;;0.30;;
18224;SDS011;9237;48.590;8.854;2022-08-23T08:37:39;0.30;;;0.30;;
18224;SDS011;9237;48.590;8.854;2022-08-23T08:40:07;0.30;;;0.30;;
18224;SDS011;9237;48.590;8.854;2022-08-23T08:45:31;0.20;;;0.20;;
18224;SDS011;9237;48.590;8.854;2022-08-23T08:48:04;0.30;;;0.30;;
18224;SDS011;9237;48.590;8.854;2022-08-23T08:50:37;0.30;;;0.30;;
18224;SDS011;9237;48.590;8.854;2022-08-23T08:53:07;0.20;;;0.20;;
18224;SDS011;9237;48.590;8.854;2022-08-23T08:55:37;0.20;;;0.20;;
18224;SDS011;9237;48.590;8.854;2022-08-23T08:58:11;0.20;;;0.20;;
18224;SDS011;9237;48.590;8.854;2022-08-23T09:00:42;0.20;;;0.20;;
18224;SDS011;9237;48.590;8.854;2022-08-23T09:03:11;0.30;;;0.30;;
18224;SDS011;9237;48.590;8.854;2022-08-23T09:05:50;0.20;;;0.20;;
18224;SDS011;9237;48.590;8.854;2022-08-23T09:08:34;0.20;;;0.20;;
18224;SDS011;9237;48.590;8.854;2022-08-23T09:11:13;0.20;;;0.20;;
18224;SDS011;9237;48.590;8.854;2022-08-23T09:13:51;0.20;;;0.20;;
18224;SDS011;9237;48.590;8.854;2022-08-23T09:16:32;0.20;;;0.20;;
18224;SDS011;9237;48.590;8.854;2022-08-23T09:19:08;0.20;;;0.20;;
18224;SDS011;9237;48.590;8.854;2022-08-23T09:21:39;0.20;;;0.20;;
18224;SDS011;9237;48.590;8.854;2022-08-23T09:24:10;0.20;;;0.20;;
18224;SDS011;9237;48.590;8.854;2022-08-23T09:26:37;0.10;;;0.10;;
18224;SDS011;9237;48.590;8.854;2022-08-23T09:29:08;0.20;;;0.20;;
18224;SDS011;9237;48.590;8.854;2022-08-23T09:31:42;0.20;;;0.20;;
18224;SDS011;9237;48.590;8.854;2022-08-23T09:34:14;0.20;;;0.20;;
18224;SDS011;9237;48.590;8.854;2022-08-23T09:36:47;0.20;;;0.20;;
18224;SDS011;9237;48.590;8.854;2022-08-23T09:39:25;0.20;;;0.20;;
18224;SDS011;9237;48.590;8.854;2022-08-23T09:41:54;0.20;;;0.20;;
18224;SDS011;9237;48.590;8.854;2022-08-23T09:44:33;0.20;;;0.20;;
18224;SDS011;9237;48.590;8.854;2022-08-23T09:47:06;0.10;;;0.10;;
18224;SDS011;9237;48.590;8.854;2022-08-23T09:49:36;0.20;;;0.20;;
18224;SDS011;9237;48.590;8.854;2022-08-23T09:52:10;0.20;;;0.20;;
18224;SDS011;9237;48.590;8.854;2022-08-23T09:54:43;0.20;;;0.20;;
18224;SDS011;9237;48.590;8.854;2022-08-23T09:57:21;0.20;;;0.20;;
18224;SDS011;9237;48.590;8.854;2022-08-23T09:59:51;0.20;;;0.20;;
18224;SDS011;9237;48.590;8.854;2022-08-23T10:02:23;0.20;;;0.20;;
18224;SDS011;9237;48.590;8.854;2022-08-23T10:04:56;0.20;;;0.20;;
18224;SDS011;9237;48.590;8.854;2022-08-23T10:07:31;0.20;;;0.20;;
18224;SDS011;9237;48.590;8.854;2022-08-23T10:10:12;0.20;;;0.20;;
18224;SDS011;9237;48.590;8.854;2022-08-23T10:12:52;0.20;;;0.20;;
18224;SDS011;9237;48.590;8.854;2022-08-23T10:15:20;0.20;;;0.20;;
18224;SDS011;9237;48.590;8.854;2022-08-23T10:17:54;0.20;;;0.20;;
18224;SDS011;9237;48.590;8.854;2022-08-23T10:20:30;0.10;;;0.10;;
18224;SDS011;9237;48.590;8.854;2022-08-23T10:23:12;0.20;;;0.20;;
18224;SDS011;9237;48.590;8.854;2022-08-23T10:25:47;0.10;;;0.10;;
18224;SDS011;9237;48.590;8.854;2022-08-23T10:28:21;0.20;;;0.20;;
18224;SDS011;9237;48.590;8.854;2022-08-23T10:31:17;0.13;;;0.13;;
18224;SDS011;9237;48.590;8.854;2022-08-23T10:33:57;0.20;;;0.20;;
18224;SDS011;9237;48.590;8.854;2022-08-23T10:36:41;0.10;;;0.10;;
18224;SDS011;9237;48.590;8.854;2022-08-23T10:39:17;0.20;;;0.20;;
18224;SDS011;9237;48.590;8.854;2022-08-23T10:41:51;0.10;;;0.10;;
18224;SDS011;9237;48.590;8.854;2022-08-23T10:44:24;0.20;;;0.20;;
18224;SDS011;9237;48.590;8.854;2022-08-23T10:47:01;0.13;;;0.13;;
18224;SDS011;9237;48.590;8.854;2022-08-23T10:49:41;0.15;;;0.15;;
18224;SDS011;9237;48.590;8.854;2022-08-23T10:52:11;0.20;;;0.20;;
18224;SDS011;9237;48.590;8.854;2022-08-23T10:54:43;0.10;;;0.10;;
18224;SDS011;9237;48.590;8.854;2022-08-23T10:57:24;0.10;;;0.10;;
18224;SDS011;9237;48.590;8.854;2022-08-23T10:59:57;0.10;;;0.10;;
18224;SDS011;9237;48.590;8.854;2022-08-23T11:02:28;0.15;;;0.15;;
18224;SDS011;9237;48.590;8.854;2022-08-23T11:05:02;0.20;;;0.20;;
18224;SDS011;9237;48.590;8.854;2022-08-23T11:07:31;0.20;;;0.20;;
18224;SDS011;9237;48.590;8.854;2022-08-23T11:10:09;0.20;;;0.20;;
18224;SDS011;9237;48.590;8.854;2022-08-23T11:15:29;0.20;;;0.20;;
18224;SDS011;9237;48.590;8.854;2022-08-23T11:18:03;0.10;;;0.10;;
18224;SDS011;9237;48.590;8.854;2022-08-23T11:23:41;0.20;;;0.20;;
18224;SDS011;9237;48.590;8.854;2022-08-23T11:29:29;0.20;;;0.20;;
18224;SDS011;9237;48.590;8.854;2022-08-23T11:32:01;0.20;;;0.20;;
18224;SDS011;9237;48.590;8.854;2022-08-23T11:34:47;0.20;;;0.20;;
18224;SDS011;9237;48.590;8.854;2022-08-23T11:37:24;0.10;;;0.10;;
18224;SDS011;9237;48.590;8.854;2022-08-23T11:40:00;0.10;;;0.10;;
18224;SDS011;9237;48.590;8.854;2022-08-23T11:42:43;0.20;;;0.20;;
18224;SDS011;9237;48.590;8.854;2022-08-23T11:45:29;0.10;;;0.10;;
18224;SDS011;9237;48.590;8.854;2022-08-23T11:48:07;0.20;;;0.20;;
18224;SDS011;9237;48.590;8.854;2022-08-23T11:50:51;0.20;;;0.20;;
18224;SDS011;9237;48.590;8.854;2022-08-23T11:53:34;0.20;;;0.20;;
18224;SDS011;9237;48.590;8.854;2022-08-23T11:56:13;0.20;;;0.20;;
18224;SDS011;9237;48.590;8.854;2022-08-23T11:59:02;0.20;;;0.20;;
18224;SDS011;9237;48.590;8.854;2022-08-23T12:01:40;0.20;;;0.20;;
18224;SDS011;9237;48.590;8.854;2022-08-23T12:04:09;0.20;;;0.20;;
18224;SDS011;9237;48.590;8.854;2022-08-23T12:06:52;0.20;;;0.20;;
18224;SDS011;9237;48.590;8.854;2022-08-23T12:12:24;0.20;;;0.20;;
18224;SDS011;9237;48.590;8.854;2022-08-23T12:14:56;0.20;;;0.20;;
18224;SDS011;9237;48.590;8.854;2022-08-23T12:20:31;0.20;;;0.20;;
18224;SDS011;9237;48.590;8.854;2022-08-23T12:23:02;0.10;;;0.10;;
18224;SDS011;9237;48.590;8.854;2022-08-23T12:25:38;0.20;;;0.20;;
18224;SDS011;9237;48.590;8.854;2022-08-23T12:28:09;0.20;;;0.20;;
18224;SDS011;9237;48.590;8.854;2022-08-23T12:30:55;0.10;;;0.10;;
18224;SDS011;9237;48.590;8.854;2022-08-23T12:33:27;0.10;;;0.10;;
18224;SDS011;9237;48.590;8.854;2022-08-23T12:36:06;0.10;;;0.10;;
18224;SDS011;9237;48.590;8.854;2022-08-23T12:38:40;0.20;;;0.20;;
18224;SDS011;9237;48.590;8.854;2022-08-23T12:41:16;0.13;;;0.13;;
18224;SDS011;9237;48.590;8.854;2022-08-23T12:43:54;0.17;;;0.17;;
18224;SDS011;9237;48.590;8.854;2022-08-23T12:46:27;0.13;;;0.13;;
18224;SDS011;9237;48.590;8.854;2022-08-23T12:49:00;0.10;;;0.10;;
18224;SDS011;9237;48.590;8.854;2022-08-23T12:51:29;0.10;;;0.10;;
18224;SDS011;9237;48.590;8.854;2022-08-23T12:53:57;0.10;;;0.10;;
18224;SDS011;9237;48.590;8.854;2022-08-23T12:56:38;0.10;;;0.10;;
18224;SDS011;9237;48.590;8.854;2022-08-23T12:59:05;0.20;;;0.20;;
18224;SDS011;9237;48.590;8.854;2022-08-23T13:01:41;0.10;;;0.10;;
18224;SDS011;9237;48.590;8.854;2022-08-23T13:04:12;0.13;;;0.13;;
18224;SDS011;9237;48.590;8.854;2022-08-23T13:06:41;0.20;;;0.20;;
18224;SDS011;9237;48.590;8.854;2022-08-23T13:09:12;0.10;;;0.10;;
18224;SDS011;9237;48.590;8.854;2022-08-23T13:11:42;0.10;;;0.10;;
18224;SDS011;9237;48.590;8.854;2022-08-23T13:14:23;0.20;;;0.20;;
18224;SDS011;9237;48.590;8.854;2022-08-23T13:16:52;0.10;;;0.10;;
18224;SDS011;9237;48.590;8.854;2022-08-23T13:19:24;0.20;;;0.20;;
18224;SDS011;9237;48.590;8.854;2022-08-23T13:22:08;0.20;;;0.20;;
18224;SDS011;9237;48.590;8.854;2022-08-23T13:24:37;0.10;;;0.10;;
18224;SDS011;9237;48.590;8.854;2022-08-23T13:27:11;0.20;;;0.20;;
18224;SDS011;9237;48.590;8.854;2022-08-23T13:29:53;0.20;;;0.20;;
18224;SDS011;9237;48.590;8.854;2022-08-23T13:32:23;0.20;;;0.20;;
18224;SDS011;9237;48.590;8.854;2022-08-23T13:37:50;0.10;;;0.10;;
18224;SDS011;9237;48.590;8.854;2022-08-23T13:40:20;0.20;;;0.20;;
18224;SDS011;9237;48.590;8.854;2022-08-23T13:42:49;0.20;;;0.20;;
18224;SDS011;9237;48.590;8.854;2022-08-23T13:45:22;0.20;;;0.20;;
18224;SDS011;9237;48.590;8.854;2022-08-23T13:47:54;0.20;;;0.20;;
18224;SDS011;9237;48.590;8.854;2022-08-23T13:50:25;0.20;;;0.20;;
18224;SDS011;9237;48.590;8.854;2022-08-23T13:52:53;0.20;;;0.20;;
18224;SDS011;9237;48.590;8.854;2022-08-23T13:55:20;0.10;;;0.10;;
18224;SDS011;9237;48.590;8.854;2022-08-23T13:57:49;0.20;;;0.20;;
18224;SDS011;9237;48.590;8.854;2022-08-23T14:00:16;0.20;;;0.20;;
18224;SDS011;9237;48.590;8.854;2022-08-23T14:02:44;0.20;;;0.20;;
18224;SDS011;9237;48.590;8.854;2022-08-23T14:05:13;0.10;;;0.10;;
18224;SDS011;9237;48.590;8.854;2022-08-23T14:07:42;0.10;;;0.10;;
18224;SDS011;9237;48.590;8.854;2022-08-23T14:10:10;0.20;;;0.20;;
18224;SDS011;9237;48.590;8.854;2022-08-23T14:12:37;0.10;;;0.10;;
18224;SDS011;9237;48.590;8.854;2022-08-23T14:15:04;0.10;;;0.10;;
18224;SDS011;9237;48.590;8.854;2022-08-23T14:17:31;0.20;;;0.20;;
18224;SDS011;9237;48.590;8.854;2022-08-23T14:20:04;0.20;;;0.20;;
18224;SDS011;9237;48.590;8.854;2022-08-23T14:22:33;0.20;;;0.20;;
18224;SDS011;9237;48.590;8.854;2022-08-23T14:25:02;0.20;;;0.20;;
18224;SDS011;9237;48.590;8.854;2022-08-23T14:27:29;0.20;;;0.20;;
18224;SDS011;9237;48.590;8.854;2022-08-23T14:29:56;0.20;;;0.20;;
18224;SDS011;9237;48.590;8.854;2022-08-23T14:32:23;0.20;;;0.20;;
18224;SDS011;9237;48.590;8.854;2022-08-23T14:34:50;0.20;;;0.20;;
18224;SDS011;9237;48.590;8.854;2022-08-23T14:37:17;0.20;;;0.20;;
18224;SDS011;9237;48.590;8.854;2022-08-23T14:39:44;0.20;;;0.20;;
18224;SDS011;9237;48.590;8.854;2022-08-23T14:42:12;0.20;;;0.20;;
18224;SDS011;9237;48.590;8.854;2022-08-23T14:44:41;0.20;;;0.20;;
18224;SDS011;9237;48.590;8.854;2022-08-23T14:47:09;0.20;;;0.20;;
18224;SDS011;9237;48.590;8.854;2022-08-23T14:49:36;0.20;;;0.20;;
18224;SDS011;9237;48.590;8.854;2022-08-23T14:52:03;0.20;;;0.20;;
18224;SDS011;9237;48.590;8.854;2022-08-23T14:54:30;0.20;;;0.20;;
18224;SDS011;9237;48.590;8.854;2022-08-23T14:56:58;0.20;;;0.20;;
18224;SDS011;9237;48.590;8.854;2022-08-23T14:59:26;0.15;;;0.15;;
18224;SDS011;9237;48.590;8.854;2022-08-23T15:01:53;0.20;;;0.20;;
18224;SDS011;9237;48.590;8.854;2022-08-23T15:04:22;0.20;;;0.20;;
18224;SDS011;9237;48.590;8.854;2022-08-23T15:06:49;0.20;;;0.20;;
18224;SDS011;9237;48.590;8.854;2022-08-23T15:09:16;0.20;;;0.20;;
18224;SDS011;9237;48.590;8.854;2022-08-23T15:11:43;0.20;;;0.20;;
18224;SDS011;9237;48.590;8.854;2022-08-23T15:14:11;0.20;;;0.20;;
18224;SDS011;9237;48.590;8.854;2022-08-23T15:16:40;0.30;;;0.30;;
18224;SDS011;9237;48.590;8.854;2022-08-23T15:19:07;0.20;;;0.20;;
18224;SDS011;9237;48.590;8.854;2022-08-23T15:21:33;0.20;;;0.20;;
18224;SDS011;9237;48.590;8.854;2022-08-23T15:24:00;0.20;;;0.20;;
18224;SDS011;9237;48.590;8.854;2022-08-23T15:26:28;0.20;;;0.20;;
18224;SDS011;9237;48.590;8.854;2022-08-23T15:28:56;0.20;;;0.20;;
18224;SDS011;9237;48.590;8.854;2022-08-23T15:31:23;0.20;;;0.20;;
18224;SDS011;9237;48.590;8.854;2022-08-23T15:33:52;0.28;;;0.28;;
18224;SDS011;9237;48.590;8.854;2022-08-23T15:36:19;0.30;;;0.30;;
18224;SDS011;9237;48.590;8.854;2022-08-23T15:38:47;0.30;;;0.30;;
18224;SDS011;9237;48.590;8.854;2022-08-23T15:41:14;0.30;;;0.30;;